MMRX/REX METAR and TAF weather

Enter ICAO airport designator
Station Type Date Time Source
MMRX METAR 2019/10/23 00:40 UTC NOAA

MMRX 230040Z 03006KT 8SM SKC 24/14 A3006 RMK HZY CI


Station Type Date Time Source
MMRX Decoded METAR 2019/10/23 00:40 UTC NOAA

Reynosa International Airport , Mexico (MMRX) 26-01N 098-14W
Oct 22, 2019 - 08:40 PM EDT / 2019.10.23 0040 UTC
Wind: from the NNE (030 degrees) at 7 MPH (6 KT):0
Visibility: 8 mile(s):0
Sky conditions: clear
Temperature: 75 F (24 C)
Dew Point: 57 F (14 C)
Relative Humidity: 53%
Pressure (altimeter): 30.06 in. Hg (1017 hPa)
ob: MMRX 230040Z 03006KT 8SM SKC 24/14 A3006 RMK HZY CI
cycle: 0

Station Type Date Time Source
MMRX TAF 2019/10/23 06:41 UTC NOAA

TAF MMRX 230535Z 2306/2406 03006KT P6SM SKC
FM231600 12015KT P6SM BKN020
TEMPO 2323/2403 5SM RA

Example: see airport list